Time;durP1;ratioP1;P1;durP2;ratioP2;P2;SDS_P1;SDS_P2;PMS_P1;PMS_P2;Temp;Humidity;BMP_temperature;BMP_pressure;BME280_temperature;BME280_humidity;BME280_pressure;Samples;Min_cycle;Max_cycle;Signal;HPM_P1;HPM_P2
2023/05/19 00:01:51;;;;;;;2.78;1.83;;;;;;;14.25;nan;60626.75;5012117;28;20180;-69
2023/05/19 00:04:17;;;;;;;2.35;1.80;;;;;;;14.29;nan;60660.06;5011925;28;20627;-70
2023/05/19 00:06:45;;;;;;;2.42;1.90;;;;;;;14.26;nan;60646.44;5012447;28;20225;-69
2023/05/19 00:09:11;;;;;;;3.80;2.13;;;;;;;14.08;nan;60778.34;5012153;28;20245;-69
2023/05/19 00:11:37;;;;;;;2.20;1.80;;;;;;;14.11;nan;60837.66;5011083;28;20192;-69
2023/05/19 00:14:08;;;;;;;3.00;1.98;;;;;;;14.26;nan;60702.94;5012049;28;20176;-68
2023/05/19 00:16:35;;;;;;;3.13;1.95;;;;;;;14.02;nan;60820.41;5012598;28;20169;-69
2023/05/19 00:19:02;;;;;;;2.08;1.80;;;;;;;14.26;nan;60717.78;5016371;28;20678;-70
2023/05/19 00:21:28;;;;;;;4.47;2.15;;;;;;;14.32;nan;60696.84;5016088;28;20191;-68
2023/05/19 00:23:55;;;;;;;2.40;1.90;;;;;;;14.30;nan;60684.31;5016328;28;20171;-69
2023/05/19 00:26:23;;;;;;;3.40;2.17;;;;;;;14.35;nan;60720.75;5016141;28;20163;-69
2023/05/19 00:28:49;;;;;;;5.13;2.00;;;;;;;13.98;nan;60625.91;5015864;28;20182;-69
2023/05/19 00:31:15;;;;;;;2.50;2.10;;;;;;;13.99;nan;60716.34;5031556;28;20199;-69
2023/05/19 00:33:40;;;;;;;2.22;2.00;;;;;;;14.02;nan;60715.13;5015893;28;20627;-68
2023/05/19 00:36:06;;;;;;;2.22;1.85;;;;;;;14.10;nan;60798.56;5015999;28;20187;-70
2023/05/19 00:38:33;;;;;;;3.42;2.10;;;;;;;14.37;nan;60820.09;5016083;28;20176;-68
2023/05/19 00:41:00;;;;;;;3.40;1.92;;;;;;;14.14;nan;60821.06;5015556;28;20178;-69
2023/05/19 00:43:26;;;;;;;3.90;2.22;;;;;;;14.40;nan;60872.28;5015525;28;20183;-68
2023/05/19 00:45:51;;;;;;;2.65;2.00;;;;;;;14.10;nan;60849.94;5018580;28;20557;-69
2023/05/19 00:48:17;;;;;;;2.58;2.13;;;;;;;14.44;nan;60841.34;5014296;28;20175;-68
2023/05/19 00:50:44;;;;;;;2.40;2.00;;;;;;;14.16;nan;60809.88;5015542;28;20210;-69
2023/05/19 00:53:10;;;;;;;2.55;1.90;;;;;;;14.12;nan;60800.81;5015275;28;20623;-68
2023/05/19 00:55:36;;;;;;;2.67;2.03;;;;;;;14.41;nan;60924.81;5015316;28;20654;-68
2023/05/19 00:58:04;;;;;;;2.92;1.92;;;;;;;14.07;nan;60874.25;5015236;28;20211;-68
2023/05/19 01:00:30;;;;;;;2.38;1.98;;;;;;;14.11;nan;60871.06;5015552;28;20197;-70
2023/05/19 01:02:56;;;;;;;2.50;2.08;;;;;;;14.34;nan;60924.59;5015516;28;20175;-68
2023/05/19 01:05:21;;;;;;;3.05;2.13;;;;;;;14.37;nan;60879.19;5015470;28;20172;-69
2023/05/19 01:07:52;;;;;;;2.33;2.00;;;;;;;14.37;nan;60905.44;5015501;28;20172;-68
2023/05/19 01:10:20;;;;;;;3.47;2.22;;;;;;;14.28;nan;60874.19;5015214;28;20627;-70
2023/05/19 01:12:46;;;;;;;3.00;2.20;;;;;;;14.39;nan;60930.81;5014811;28;20203;-70
2023/05/19 01:15:12;;;;;;;2.00;1.80;;;;;;;14.35;nan;60882.06;5013863;28;20179;-68
2023/05/19 01:17:53;;;;;;;3.47;2.00;;;;;;;14.05;nan;60877.16;5014935;28;20585;-69
2023/05/19 01:20:29;;;;;;;2.72;2.22;;;;;;;14.25;nan;60891.34;5014723;28;20219;-68
2023/05/19 01:23:15;;;;;;;2.22;2.03;;;;;;;14.33;nan;60900.94;5014458;28;20271;-68
2023/05/19 01:26:13;;;;;;;3.17;2.10;;;;;;;14.36;nan;60935.16;5014958;28;20168;-70
2023/05/19 01:28:38;;;;;;;2.72;2.00;;;;;;;14.25;nan;60871.38;5001506;28;20530;-67
2023/05/19 01:31:06;;;;;;;2.53;2.03;;;;;;;14.13;nan;60837.91;5014661;28;20196;-69
2023/05/19 01:33:32;;;;;;;2.72;2.00;;;;;;;14.22;nan;60999.03;5014872;28;20167;-69
2023/05/19 01:36:02;;;;;;;4.10;2.22;;;;;;;13.94;nan;60867.91;5014780;28;20203;-70
2023/05/19 01:38:28;;;;;;;3.33;2.28;;;;;;;13.97;nan;60873.84;5013741;28;20288;-70
2023/05/19 01:40:55;;;;;;;3.90;2.20;;;;;;;14.30;nan;60922.69;5012466;28;20187;-68
2023/05/19 01:43:23;;;;;;;3.72;2.55;;;;;;;14.36;nan;60922.31;5014168;28;20187;-69
2023/05/19 01:45:49;;;;;;;2.97;2.05;;;;;;;14.23;nan;60922.53;5013663;28;20229;-69
2023/05/19 01:48:16;;;;;;;2.38;1.95;;;;;;;14.30;nan;60912.41;5015278;28;20236;-66
2023/05/19 01:50:42;;;;;;;3.63;2.33;;;;;;;14.09;nan;60905.34;5015888;28;20164;-68
2023/05/19 01:53:07;;;;;;;2.22;2.03;;;;;;;14.12;nan;60911.28;5014153;28;20176;-68
2023/05/19 01:55:38;;;;;;;2.85;2.10;;;;;;;14.18;nan;60909.19;5013842;28;20639;-70
2023/05/19 01:58:28;;;;;;;3.20;2.28;;;;;;;14.25;nan;60927.31;5013879;28;20249;-68
2023/05/19 02:01:12;;;;;;;5.57;2.58;;;;;;;14.31;nan;60931.50;5013640;28;20195;-68
2023/05/19 02:04:10;;;;;;;2.15;1.95;;;;;;;14.20;nan;60917.13;5012571;28;20198;-66
2023/05/19 02:07:02;;;;;;;2.92;2.13;;;;;;;13.99;nan;61071.28;5012278;28;20267;-68
2023/05/19 02:09:48;;;;;;;3.80;2.13;;;;;;;14.13;nan;60929.81;5012143;28;20184;-68
2023/05/19 02:12:22;;;;;;;3.53;2.40;;;;;;;14.22;nan;60949.66;5014235;28;20285;-70
2023/05/19 02:14:58;;;;;;;2.72;2.35;;;;;;;14.28;nan;60936.41;5014101;28;20161;-68
2023/05/19 02:17:27;;;;;;;2.47;2.08;;;;;;;13.91;nan;60915.91;5013951;28;20550;-68
2023/05/19 02:19:53;;;;;;;2.70;2.00;;;;;;;14.23;nan;60961.06;5013881;28;20234;-69
2023/05/19 02:22:18;;;;;;;3.00;2.08;;;;;;;14.00;nan;60949.16;5013593;28;20558;-69
2023/05/19 02:24:45;;;;;;;3.25;2.33;;;;;;;14.07;nan;61067.44;5013967;28;20172;-67
2023/05/19 02:27:10;;;;;;;3.55;2.50;;;;;;;14.21;nan;60958.78;5013798;28;20160;-68
2023/05/19 02:29:36;;;;;;;3.58;2.38;;;;;;;14.14;nan;60903.25;5013557;28;20540;-70
2023/05/19 02:32:01;;;;;;;3.30;2.10;;;;;;;14.19;nan;60915.47;5013988;28;20188;-69
2023/05/19 02:34:26;;;;;;;3.15;2.50;;;;;;;13.82;nan;60921.19;5013695;28;20183;-69
2023/05/19 02:36:52;;;;;;;4.47;2.20;;;;;;;14.03;nan;60934.53;5013947;28;20161;-69
2023/05/19 02:39:18;;;;;;;2.58;2.10;;;;;;;14.08;nan;60909.34;5013825;28;20188;-69
2023/05/19 02:41:43;;;;;;;4.32;3.00;;;;;;;14.05;nan;60920.81;5013328;28;20175;-68
2023/05/19 02:44:08;;;;;;;4.82;2.38;;;;;;;13.93;nan;61105.03;5012845;28;20248;-68
2023/05/19 02:46:34;;;;;;;4.85;2.22;;;;;;;13.85;nan;60893.75;5013228;28;20255;-69
2023/05/19 02:48:59;;;;;;;6.03;2.08;;;;;;;13.88;nan;61091.69;5013618;28;20176;-69
2023/05/19 02:51:25;;;;;;;2.83;2.38;;;;;;;13.68;nan;60908.56;5013406;28;20274;-70
2023/05/19 02:53:50;;;;;;;3.13;2.30;;;;;;;13.81;nan;60891.81;5015547;28;20518;-68
2023/05/19 02:56:16;;;;;;;5.13;2.47;;;;;;;13.89;nan;60854.59;5013016;28;20263;-69
2023/05/19 02:58:42;;;;;;;2.20;2.00;;;;;;;13.92;nan;60881.06;5013024;28;20164;-68
2023/05/19 03:01:08;;;;;;;3.45;2.33;;;;;;;13.88;nan;60871.44;5013605;28;20169;-67
2023/05/19 03:03:34;;;;;;;2.95;2.20;;;;;;;13.66;nan;60970.47;5013244;28;20234;-68
2023/05/19 03:06:00;;;;;;;2.85;2.38;;;;;;;13.92;nan;60906.75;5014630;28;20183;-69
2023/05/19 03:08:26;;;;;;;3.17;2.30;;;;;;;13.59;nan;61031.34;5013487;28;20180;-69
2023/05/19 03:10:51;;;;;;;2.78;2.22;;;;;;;13.97;nan;60883.56;5012572;28;20203;-70
2023/05/19 03:13:17;;;;;;;4.47;2.70;;;;;;;13.81;nan;61063.25;5012738;28;20636;-70
2023/05/19 03:15:42;;;;;;;4.70;2.40;;;;;;;13.93;nan;60894.47;5012991;28;20221;-70
2023/05/19 03:18:07;;;;;;;6.15;3.08;;;;;;;13.77;nan;60835.41;5012946;28;20266;-70
2023/05/19 03:20:33;;;;;;;4.05;2.67;;;;;;;14.00;nan;60907.50;5013048;28;20571;-69
2023/05/19 03:22:58;;;;;;;3.30;2.53;;;;;;;13.98;nan;61077.28;5012597;28;20179;-69
2023/05/19 03:25:24;;;;;;;3.38;2.55;;;;;;;13.75;nan;61003.16;5012438;28;20203;-68
2023/05/19 03:27:50;;;;;;;9.82;2.85;;;;;;;14.20;nan;60939.69;5012362;28;20694;-67
2023/05/19 03:30:15;;;;;;;3.65;2.50;;;;;;;14.15;nan;60927.47;5018001;28;20271;-68
2023/05/19 03:32:41;;;;;;;3.15;2.55;;;;;;;13.92;nan;60863.09;5018707;28;20235;-69
2023/05/19 03:35:07;;;;;;;4.55;2.53;;;;;;;14.21;nan;60918.25;5018022;28;20266;-70
2023/05/19 03:37:32;;;;;;;5.03;2.60;;;;;;;14.04;nan;60884.31;5018804;28;20662;-69
2023/05/19 03:39:58;;;;;;;4.00;2.35;;;;;;;14.00;nan;60876.66;5016981;28;20262;-68
2023/05/19 03:42:24;;;;;;;3.47;2.50;;;;;;;13.95;nan;60873.63;5014711;28;20172;-68
2023/05/19 03:44:49;;;;;;;3.22;2.35;;;;;;;14.29;nan;60906.69;5012286;28;20183;-69
2023/05/19 03:47:14;;;;;;;3.85;2.28;;;;;;;14.14;nan;60944.34;5012317;28;20175;-68
2023/05/19 03:49:40;;;;;;;2.72;2.30;;;;;;;14.39;nan;61149.25;5017021;28;20180;-69
2023/05/19 03:52:06;;;;;;;2.63;2.22;;;;;;;14.54;nan;60998.53;5016775;28;20214;-67
2023/05/19 03:54:31;;;;;;;3.58;2.55;;;;;;;14.55;nan;60925.69;5016861;28;20180;-69
2023/05/19 03:56:57;;;;;;;4.32;2.70;;;;;;;14.58;nan;61021.03;5022597;28;20179;-69
2023/05/19 03:59:23;;;;;;;2.83;2.53;;;;;;;13.93;nan;61022.84;5013813;28;20234;-69
2023/05/19 04:01:48;;;;;;;4.15;2.88;;;;;;;14.71;nan;60968.81;5017904;28;20186;-68
2023/05/19 04:04:14;;;;;;;4.60;2.50;;;;;;;14.50;nan;61001.75;5019391;28;20192;-69
2023/05/19 04:06:39;;;;;;;3.28;2.30;;;;;;;14.37;nan;60990.25;5022569;28;20207;-68
2023/05/19 04:09:12;;;;;;;6.43;2.80;;;;;;;14.62;nan;61014.69;5016271;28;20180;-69
2023/05/19 04:11:38;;;;;;;6.13;2.67;;;;;;;14.84;nan;60990.63;5016056;28;20222;-68
2023/05/19 04:14:04;;;;;;;4.75;2.70;;;;;;;14.92;nan;61035.63;5021661;28;20240;-70
2023/05/19 04:16:29;;;;;;;3.08;2.42;;;;;;;14.83;nan;61082.63;5019173;28;20552;-69
2023/05/19 04:18:55;;;;;;;3.92;2.60;;;;;;;14.79;nan;61037.00;5013905;28;20279;-70
2023/05/19 04:21:21;;;;;;;4.22;2.92;;;;;;;14.84;nan;61054.91;5019213;28;20176;-70
2023/05/19 04:23:46;;;;;;;4.22;2.92;;;;;;;14.54;nan;61017.09;5014749;28;20195;-70
2023/05/19 04:26:13;;;;;;;4.45;2.35;;;;;;;14.52;nan;61055.97;5018015;28;20678;-69
2023/05/19 04:28:41;;;;;;;4.15;2.67;;;;;;;14.56;nan;61011.66;5016279;28;20179;-69
2023/05/19 04:31:09;;;;;;;3.45;2.35;;;;;;;14.62;nan;61056.38;5020136;28;20219;-69
2023/05/19 04:33:36;;;;;;;4.18;2.75;;;;;;;14.95;nan;61114.16;5017888;28;20176;-71
2023/05/19 04:36:07;;;;;;;4.72;2.90;;;;;;;14.89;nan;61083.69;5016127;28;20550;-70
2023/05/19 04:38:36;;;;;;;3.85;2.25;;;;;;;15.23;nan;61306.72;5011531;28;20238;-69
2023/05/19 04:41:02;;;;;;;6.60;2.65;;;;;;;14.99;nan;61175.25;5017839;28;20674;-69
2023/05/19 04:43:28;;;;;;;3.78;2.60;;;;;;;15.45;nan;61170.00;5019366;28;20171;-68
2023/05/19 04:45:54;;;;;;;3.58;2.35;;;;;;;15.62;nan;61186.06;5009593;28;20246;-69
2023/05/19 04:48:23;;;;;;;3.25;2.45;;;;;;;15.63;nan;61207.78;5016994;28;20564;-68
2023/05/19 04:50:50;;;;;;;3.78;2.85;;;;;;;15.85;nan;61229.50;5015679;28;20183;-68
2023/05/19 04:53:16;;;;;;;6.55;2.85;;;;;;;16.18;nan;61287.38;5018356;28;20191;-69
2023/05/19 04:55:42;;;;;;;3.67;2.50;;;;;;;16.28;nan;61357.94;5019860;28;20180;-71
2023/05/19 04:58:08;;;;;;;4.25;2.78;;;;;;;16.59;nan;61332.59;5016561;28;20753;-69
2023/05/19 05:00:34;;;;;;;3.70;2.58;;;;;;;17.10;nan;61410.91;5019357;28;20222;-69
2023/05/19 05:03:03;;;;;;;8.55;3.58;;;;;;;17.39;nan;61675.03;5013795;28;20330;-69
2023/05/19 05:05:30;;;;;;;5.38;3.00;;;;;;;18.04;nan;61562.72;5019703;28;20184;-68
2023/05/19 05:07:56;;;;;;;3.22;2.58;;;;;;;18.64;nan;61629.63;5022176;28;20184;-69
2023/05/19 05:10:21;;;;;;;3.92;2.70;;;;;;;18.21;nan;61570.53;5018362;28;20721;-70
2023/05/19 05:12:47;;;;;;;4.65;2.47;;;;;;;18.61;nan;61631.44;5014912;28;20211;-67
2023/05/19 05:15:13;;;;;;;5.50;3.00;;;;;;;18.59;nan;61665.38;5020810;28;20677;-68
2023/05/19 05:17:39;;;;;;;4.10;2.83;;;;;;;18.72;nan;61664.63;5020959;28;20622;-69
2023/05/19 05:20:07;;;;;;;3.70;2.47;;;;;;;18.68;nan;61667.81;5018469;28;20329;-67
2023/05/19 05:22:33;;;;;;;4.57;2.90;;;;;;;18.78;nan;61645.53;5020486;28;20186;-70
2023/05/19 05:25:00;;;;;;;4.57;2.88;;;;;;;18.11;nan;61627.00;5021346;28;20549;-68
2023/05/19 05:27:25;;;;;;;5.43;3.20;;;;;;;18.33;nan;61628.66;5016831;28;20216;-69
2023/05/19 05:29:52;;;;;;;5.53;3.10;;;;;;;17.97;nan;61655.63;5018005;28;20218;-70
2023/05/19 05:32:17;;;;;;;3.80;2.45;;;;;;;17.91;nan;61674.09;5015566;28;20202;-71
2023/05/19 05:34:43;;;;;;;4.90;2.80;;;;;;;18.35;nan;61625.78;5016398;28;20192;-69
2023/05/19 05:37:08;;;;;;;3.40;2.72;;;;;;;18.14;nan;61635.56;5023017;28;20677;-69
2023/05/19 05:39:33;;;;;;;5.10;2.88;;;;;;;17.82;nan;61547.56;5018489;28;20238;-67
2023/05/19 05:41:59;;;;;;;3.60;2.70;;;;;;;18.02;nan;61591.50;5021053;28;20218;-69
2023/05/19 05:44:25;;;;;;;4.15;3.08;;;;;;;17.82;nan;61532.63;5020481;28;20642;-70
2023/05/19 05:46:50;;;;;;;4.97;3.15;;;;;;;17.66;nan;61537.78;5019176;28;20185;-69
2023/05/19 05:49:16;;;;;;;3.83;2.72;;;;;;;17.95;nan;61564.88;5013546;28;20664;-69
2023/05/19 05:51:42;;;;;;;4.90;2.97;;;;;;;17.99;nan;61564.81;5015183;28;20250;-69
2023/05/19 05:54:10;;;;;;;9.20;3.40;;;;;;;18.43;nan;61580.50;5018245;28;20614;-70
2023/05/19 05:56:36;;;;;;;6.70;3.20;;;;;;;17.91;nan;61643.66;5015604;28;20183;-71
2023/05/19 05:59:02;;;;;;;5.65;3.10;;;;;;;18.32;nan;61593.91;5012540;28;20188;-67
2023/05/19 06:01:29;;;;;;;4.82;3.05;;;;;;;18.44;nan;61619.88;5018451;28;20249;-69
2023/05/19 06:03:54;;;;;;;6.93;3.25;;;;;;;18.51;nan;61620.06;5020393;28;20195;-68
2023/05/19 06:06:20;;;;;;;5.50;3.58;;;;;;;18.73;nan;61758.91;5027485;28;20196;-70
2023/05/19 06:08:45;;;;;;;3.38;2.70;;;;;;;18.43;nan;61642.59;5015847;28;20695;-64
2023/05/19 06:11:11;;;;;;;5.45;3.20;;;;;;;18.67;nan;61772.25;5020575;28;20248;-62
2023/05/19 06:13:37;;;;;;;4.80;3.50;;;;;;;18.73;nan;61631.50;5015366;28;20275;-63
2023/05/19 06:16:03;;;;;;;5.00;3.33;;;;;;;19.02;nan;61884.53;5014510;28;20259;-64
2023/05/19 06:18:29;;;;;;;5.97;3.30;;;;;;;19.05;nan;61711.84;5012839;28;20188;-63
2023/05/19 06:20:54;;;;;;;4.60;3.38;;;;;;;19.12;nan;61688.16;5013270;28;20228;-63
2023/05/19 06:23:20;;;;;;;5.80;3.72;;;;;;;19.66;nan;61738.53;5013550;28;20188;-66
2023/05/19 06:25:45;;;;;;;4.88;3.28;;;;;;;19.31;nan;61741.38;5015258;28;20567;-63
2023/05/19 06:28:11;;;;;;;8.63;3.53;;;;;;;19.24;nan;61723.03;5018749;28;20207;-64
2023/05/19 06:30:37;;;;;;;5.18;3.80;;;;;;;19.33;nan;61735.28;5019810;28;20259;-61
2023/05/19 06:33:02;;;;;;;6.40;3.58;;;;;;;19.23;nan;61731.72;5023488;28;20522;-64
2023/05/19 06:35:28;;;;;;;6.03;3.67;;;;;;;19.45;nan;61771.69;5015906;28;20184;-61
2023/05/19 06:37:55;;;;;;;5.10;3.30;;;;;;;19.43;nan;61819.19;5013026;28;20180;-63
2023/05/19 06:40:21;;;;;;;6.18;3.45;;;;;;;19.60;nan;61768.59;5013533;28;20200;-63
2023/05/19 06:42:46;;;;;;;6.85;3.58;;;;;;;19.91;nan;61802.66;5015283;28;20184;-62
2023/05/19 06:45:11;;;;;;;4.57;3.47;;;;;;;19.85;nan;61811.97;5013474;28;20550;-65
2023/05/19 06:47:37;;;;;;;5.82;3.40;;;;;;;20.08;nan;61790.84;4319824;28;20568;-66
2023/05/19 06:50:03;;;;;;;5.68;3.45;;;;;;;19.97;nan;61833.38;4465128;28;20191;-65
2023/05/19 06:52:28;;;;;;;5.93;3.70;;;;;;;19.86;nan;61792.34;5029372;28;20709;-66
2023/05/19 06:54:54;;;;;;;6.00;3.85;;;;;;;19.98;nan;61785.22;5014238;28;20176;-63
2023/05/19 06:57:19;;;;;;;5.75;3.60;;;;;;;19.95;nan;61766.28;5018553;28;20192;-65
2023/05/19 06:59:45;;;;;;;6.47;3.80;;;;;;;20.03;nan;61821.47;5015696;28;20187;-64
2023/05/19 07:02:11;;;;;;;5.80;3.08;;;;;;;20.24;nan;61845.34;5017652;28;20191;-64
2023/05/19 07:04:36;;;;;;;4.90;3.35;;;;;;;20.22;nan;61861.78;5017017;28;20733;-62
2023/05/19 07:07:01;;;;;;;5.82;3.65;;;;;;;20.54;nan;62071.56;5012306;28;20262;-63
2023/05/19 07:09:27;;;;;;;6.00;3.65;;;;;;;20.50;nan;61884.72;5017166;28;20230;-64
2023/05/19 07:11:52;;;;;;;5.22;3.55;;;;;;;20.77;nan;61949.19;5018503;28;20225;-62
2023/05/19 07:14:19;;;;;;;6.35;3.65;;;;;;;20.78;nan;61913.97;5014319;28;20180;-64
2023/05/19 07:16:45;;;;;;;8.45;4.18;;;;;;;20.87;nan;61903.44;5013927;28;20251;-63
2023/05/19 07:19:10;;;;;;;7.20;4.05;;;;;;;21.06;nan;61963.47;5016432;28;20242;-62
2023/05/19 07:21:36;;;;;;;6.28;3.72;;;;;;;21.50;nan;61955.81;5011586;28;20192;-62
2023/05/19 07:24:01;;;;;;;5.75;3.60;;;;;;;21.31;nan;61965.38;5016440;28;20211;-62
2023/05/19 07:26:28;;;;;;;5.75;3.97;;;;;;;21.71;nan;61992.13;5013598;28;20184;-63
2023/05/19 07:28:53;;;;;;;6.53;3.88;;;;;;;21.81;nan;62016.53;5009456;28;20233;-65
2023/05/19 07:31:18;;;;;;;6.75;3.70;;;;;;;21.64;nan;62033.59;5009938;28;20199;-63
2023/05/19 07:33:44;;;;;;;7.07;4.20;;;;;;;21.84;nan;62045.94;5017675;28;20186;-64
2023/05/19 07:36:09;;;;;;;8.20;3.92;;;;;;;21.80;nan;62002.94;5011801;28;20574;-63
2023/05/19 07:38:35;;;;;;;7.05;4.35;;;;;;;21.86;nan;62045.63;5016677;28;20187;-62
2023/05/19 07:41:01;;;;;;;9.07;4.18;;;;;;;21.58;nan;61994.09;5011522;28;20267;-61
2023/05/19 07:43:27;;;;;;;9.20;4.65;;;;;;;21.09;nan;61970.03;5010977;28;20199;-62
2023/05/19 07:45:54;;;;;;;9.38;5.35;;;;;;;20.90;nan;61857.50;5016620;28;20228;-65
2023/05/19 07:48:21;;;;;;;7.47;4.57;;;;;;;20.95;nan;61935.34;5012209;28;20701;-62
2023/05/19 07:50:48;;;;;;;7.72;4.85;;;;;;;20.66;nan;61926.31;5011338;28;20542;-63
2023/05/19 07:53:13;;;;;;;7.00;4.60;;;;;;;21.60;nan;62045.19;5013516;28;20191;-64
2023/05/19 07:55:39;;;;;;;6.75;4.18;;;;;;;21.75;nan;62054.47;5015633;28;20191;-63
2023/05/19 07:58:05;;;;;;;7.65;4.75;;;;;;;21.78;nan;62054.75;5018311;28;20257;-61
2023/05/19 08:00:31;;;;;;;7.38;4.63;;;;;;;21.84;nan;61986.69;5013609;28;20183;-64
2023/05/19 08:02:56;;;;;;;6.72;4.45;;;;;;;21.66;nan;62030.66;5009956;28;20202;-62
2023/05/19 08:05:22;;;;;;;8.30;4.28;;;;;;;21.51;nan;62014.13;5017645;28;20697;-64
2023/05/19 08:07:47;;;;;;;11.77;4.65;;;;;;;21.41;nan;62007.97;5011059;28;20186;-63
2023/05/19 08:10:13;;;;;;;8.60;4.47;;;;;;;21.63;nan;62038.22;5016052;28;20187;-63
2023/05/19 08:12:38;;;;;;;7.95;4.55;;;;;;;21.33;nan;61963.03;5011260;28;20665;-63
2023/05/19 08:15:04;;;;;;;7.20;4.40;;;;;;;21.49;nan;62002.03;5013729;28;20202;-65
2023/05/19 08:17:30;;;;;;;8.13;4.60;;;;;;;21.83;nan;62261.31;5020324;28;20205;-64
2023/05/19 08:19:55;;;;;;;8.25;4.20;;;;;;;21.86;nan;62050.84;5013266;28;20234;-63
2023/05/19 08:22:21;;;;;;;8.75;4.50;;;;;;;21.84;nan;61978.88;5010937;28;20191;-63
2023/05/19 08:24:48;;;;;;;7.65;4.50;;;;;;;21.58;nan;62035.69;5012475;28;20179;-63
2023/05/19 08:27:15;;;;;;;7.38;4.63;;;;;;;22.20;nan;62029.13;5016441;28;20184;-64
2023/05/19 08:29:40;;;;;;;7.13;4.47;;;;;;;22.01;nan;62125.75;5011597;28;20188;-64
2023/05/19 08:32:06;;;;;;;8.35;4.63;;;;;;;22.14;nan;62079.59;5012426;28;20206;-65
2023/05/19 08:34:32;;;;;;;8.43;4.57;;;;;;;21.90;nan;62188.66;5010777;28;20187;-66
2023/05/19 08:36:58;;;;;;;7.00;4.53;;;;;;;21.86;nan;62272.56;5011191;28;20267;-63
2023/05/19 08:39:25;;;;;;;8.68;4.90;;;;;;;22.20;nan;62081.78;5020275;28;20225;-62
2023/05/19 08:41:54;;;;;;;8.15;4.47;;;;;;;22.37;nan;62103.78;5023641;28;20194;-65
2023/05/19 08:44:21;;;;;;;8.85;4.93;;;;;;;22.55;nan;62115.91;5012961;28;20184;-62
2023/05/19 08:46:47;;;;;;;8.25;4.55;;;;;;;22.55;nan;62126.31;5021798;28;20299;-62
2023/05/19 08:49:15;;;;;;;7.47;4.32;;;;;;;22.68;nan;62158.78;5020565;28;20184;-63
2023/05/19 08:51:56;;;;;;;7.20;4.32;;;;;;;22.66;nan;62115.41;5022631;28;20202;-62
2023/05/19 08:54:29;;;;;;;8.02;4.78;;;;;;;22.80;nan;62149.63;5021464;28;20241;-64
2023/05/19 08:56:54;;;;;;;6.40;4.15;;;;;;;23.10;nan;62240.63;5014059;28;20602;-63
2023/05/19 08:59:21;;;;;;;7.80;4.47;;;;;;;22.94;nan;62196.28;5018855;28;20199;-65
2023/05/19 09:01:48;;;;;;;6.13;4.22;;;;;;;23.04;nan;62356.28;5021528;28;20215;-62
2023/05/19 09:04:15;;;;;;;7.55;4.78;;;;;;;22.86;nan;62036.59;5022701;28;20180;-64
2023/05/19 09:06:43;;;;;;;8.85;5.22;;;;;;;23.52;nan;62245.72;5019089;28;20258;-65
2023/05/19 09:09:09;;;;;;;8.40;5.05;;;;;;;23.46;nan;62275.38;5024575;28;20230;-61
2023/05/19 09:11:37;;;;;;;8.65;5.05;;;;;;;23.41;nan;62243.56;5022194;28;20211;-63
2023/05/19 09:14:03;;;;;;;18.20;6.55;;;;;;;23.74;nan;62297.50;5018504;28;20229;-63
2023/05/19 09:16:29;;;;;;;9.75;5.30;;;;;;;24.13;nan;62367.00;5021434;28;20191;-65
2023/05/19 09:18:59;;;;;;;10.02;5.43;;;;;;;24.27;nan;62547.59;5022437;28;20180;-63
2023/05/19 09:21:31;;;;;;;9.73;5.22;;;;;;;24.25;nan;62370.28;5018193;28;20187;-62
2023/05/19 09:24:02;;;;;;;10.73;5.53;;;;;;;24.35;nan;62452.25;5022565;28;20585;-63
2023/05/19 09:26:38;;;;;;;10.55;5.28;;;;;;;24.65;nan;62387.25;5023726;28;20186;-62
2023/05/19 09:29:11;;;;;;;8.15;4.72;;;;;;;24.43;nan;62405.97;5021507;28;20215;-64
2023/05/19 09:31:37;;;;;;;9.77;5.78;;;;;;;24.70;nan;62410.13;5022845;28;20769;-62
2023/05/19 09:34:02;;;;;;;10.25;5.28;;;;;;;24.48;nan;62352.16;5022574;28;20279;-63
2023/05/19 09:36:28;;;;;;;10.45;5.07;;;;;;;24.48;nan;62388.75;5024098;28;20564;-62
2023/05/19 09:38:54;;;;;;;9.45;5.22;;;;;;;24.60;nan;62399.84;5022057;28;20552;-64
2023/05/19 09:41:21;;;;;;;9.13;5.38;;;;;;;25.07;nan;62468.16;5024524;28;20188;-65
2023/05/19 09:43:53;;;;;;;9.85;5.45;;;;;;;25.11;nan;62435.56;5022638;28;20195;-64
2023/05/19 09:46:26;;;;;;;8.65;5.20;;;;;;;25.44;nan;62489.56;5020646;28;20211;-64
2023/05/19 09:48:56;;;;;;;8.05;5.38;;;;;;;25.36;nan;62437.97;5018524;28;20269;-65
2023/05/19 09:51:22;;;;;;;10.50;5.65;;;;;;;25.33;nan;62688.94;5029748;28;20683;-64
2023/05/19 09:53:48;;;;;;;9.40;5.75;;;;;;;25.29;nan;62493.34;5020139;28;20274;-63
2023/05/19 09:56:13;;;;;;;12.05;5.43;;;;;;;24.85;nan;62581.53;5025179;28;20270;-63
2023/05/19 09:58:41;;;;;;;9.98;5.55;;;;;;;24.30;nan;62359.75;5019138;28;20183;-63
2023/05/19 10:01:07;;;;;;;13.65;6.13;;;;;;;24.39;nan;62343.91;5020461;28;20635;-64
2023/05/19 10:03:33;;;;;;;9.40;5.75;;;;;;;24.50;nan;62357.06;5023920;28;20210;-62
2023/05/19 10:06:00;;;;;;;11.05;5.65;;;;;;;24.25;nan;62357.22;5022255;28;20172;-64
2023/05/19 10:08:28;;;;;;;10.45;5.72;;;;;;;24.03;nan;62293.50;5020540;28;20184;-63
2023/05/19 10:10:55;;;;;;;9.88;5.85;;;;;;;24.15;nan;62371.91;5019326;28;20184;-65
2023/05/19 10:13:22;;;;;;;8.48;5.78;;;;;;;24.61;nan;62400.41;5022395;28;20620;-64
2023/05/19 10:15:49;;;;;;;11.23;5.30;;;;;;;24.55;nan;62378.44;5018902;28;20291;-66
2023/05/19 10:18:17;;;;;;;9.02;5.60;;;;;;;24.57;nan;62403.69;5018379;28;20190;-63
2023/05/19 10:20:43;;;;;;;9.90;5.45;;;;;;;24.54;nan;62413.31;5016414;28;20224;-66
2023/05/19 10:23:08;;;;;;;9.88;5.82;;;;;;;24.84;nan;62667.25;5019443;28;20190;-65
2023/05/19 10:25:35;;;;;;;11.95;6.38;;;;;;;24.78;nan;62393.72;5019303;28;20187;-63
2023/05/19 10:28:12;;;;;;;10.02;5.63;;;;;;;24.69;nan;62414.81;5018223;28;20215;-64
2023/05/19 10:30:42;;;;;;;10.80;5.95;;;;;;;25.07;nan;62452.47;5017448;28;20188;-64
2023/05/19 10:33:13;;;;;;;9.15;4.95;;;;;;;25.28;nan;62481.72;5020079;28;20571;-63
2023/05/19 10:36:08;;;;;;;10.48;5.95;;;;;;;25.17;nan;62458.66;5019721;28;20175;-64
2023/05/19 10:39:04;;;;;;;8.02;5.43;;;;;;;25.88;nan;62555.06;5016375;28;20227;-66
2023/05/19 10:41:52;;;;;;;9.57;5.70;;;;;;;26.19;nan;62616.19;5003355;28;20664;-63
2023/05/19 10:44:26;;;;;;;10.30;6.05;;;;;;;26.25;nan;62610.00;5021915;28;20609;-63
2023/05/19 10:46:51;;;;;;;10.30;5.82;;;;;;;26.13;nan;62562.16;5021796;28;20266;-63
2023/05/19 10:49:21;;;;;;;10.85;5.28;;;;;;;25.94;nan;62582.88;5019316;28;20262;-65
2023/05/19 10:51:47;;;;;;;10.52;6.43;;;;;;;25.98;nan;62563.34;5018554;28;20226;-63
2023/05/19 10:54:15;;;;;;;9.60;5.20;;;;;;;25.79;nan;62505.50;5020118;28;20642;-65
2023/05/19 10:56:45;;;;;;;11.40;6.22;;;;;;;25.35;nan;62474.03;5022129;28;20174;-65
2023/05/19 10:59:31;;;;;;;11.90;6.10;;;;;;;25.56;nan;62486.47;5015189;28;20180;-62
2023/05/19 11:01:56;;;;;;;10.18;5.80;;;;;;;25.20;nan;62488.25;5021657;28;20187;-64
2023/05/19 11:04:49;;;;;;;9.15;5.63;;;;;;;24.54;nan;62374.13;5020818;28;20541;-63
2023/05/19 11:07:18;;;;;;;9.88;5.72;;;;;;;24.54;nan;62393.00;5020304;28;20187;-65
2023/05/19 11:09:49;;;;;;;11.55;5.97;;;;;;;24.24;nan;62384.81;5017110;28;20274;-64
2023/05/19 11:12:19;;;;;;;8.80;5.13;;;;;;;24.52;nan;62580.88;5020244;28;20206;-64
2023/05/19 11:14:45;;;;;;;10.45;5.90;;;;;;;24.38;nan;62551.78;5019555;28;20183;-65
2023/05/19 11:17:15;;;;;;;11.13;6.10;;;;;;;24.12;nan;62344.97;5018629;28;20190;-64
2023/05/19 11:19:51;;;;;;;9.20;5.65;;;;;;;24.65;nan;62384.06;5022018;28;20309;-63
2023/05/19 11:22:17;;;;;;;8.85;5.70;;;;;;;24.93;nan;62416.09;5020537;28;20716;-63
2023/05/19 11:24:45;;;;;;;10.32;6.32;;;;;;;25.11;nan;62470.13;5019798;28;20175;-64
2023/05/19 11:27:32;;;;;;;9.02;5.07;;;;;;;25.08;nan;62445.75;5019892;28;20184;-64
2023/05/19 11:30:10;;;;;;;9.15;4.60;;;;;;;24.86;nan;62431.66;5020049;28;20220;-65
2023/05/19 11:32:41;;;;;;;6.30;4.20;;;;;;;24.08;nan;62330.53;5023233;28;20681;-62
2023/05/19 11:35:07;;;;;;;9.82;5.28;;;;;;;24.16;nan;62271.78;5010201;28;20601;-66
2023/05/19 11:37:33;;;;;;;8.57;4.95;;;;;;;24.57;nan;62333.69;5017992;28;20184;-63
2023/05/19 11:40:06;;;;;;;7.43;4.50;;;;;;;24.26;nan;62345.31;5012546;28;20187;-62
2023/05/19 11:42:33;;;;;;;7.95;4.82;;;;;;;23.81;nan;62286.66;5016090;28;20242;-62
2023/05/19 11:44:59;;;;;;;8.25;4.53;;;;;;;23.37;nan;62257.81;5020308;28;20187;-65
2023/05/19 11:47:24;;;;;;;11.13;4.60;;;;;;;23.25;nan;62239.50;5015910;28;20715;-64
2023/05/19 11:49:56;;;;;;;9.98;4.93;;;;;;;23.27;nan;62207.88;5019724;28;20187;-62
2023/05/19 11:52:23;;;;;;;7.78;4.57;;;;;;;23.07;nan;62216.34;5014911;28;20290;-64